createdAt,value
2022-08-22T00:00:42.885Z,23.73
2022-08-22T00:02:58.998Z,24.16
2022-08-22T00:03:00.023Z,25.51
2022-08-22T00:03:02.937Z,24.21
2022-08-22T00:03:22.585Z,23.66
2022-08-22T00:05:58.347Z,23.62
2022-08-22T00:08:55.611Z,23.61
2022-08-22T00:11:39.430Z,23.57
2022-08-22T00:14:19.397Z,23.51
2022-08-22T00:17:06.337Z,23.46
2022-08-22T00:19:52.043Z,23.45
2022-08-22T00:22:45.331Z,23.40
2022-08-22T00:25:26.395Z,23.38
2022-08-22T00:28:06.095Z,23.35
2022-08-22T00:30:43.542Z,23.34
2022-08-22T00:33:30.794Z,23.33
2022-08-22T00:36:26.603Z,23.34
2022-08-22T00:39:06.178Z,23.38
2022-08-22T00:42:14.667Z,23.40
2022-08-22T00:44:51.972Z,23.40
2022-08-22T00:47:46.187Z,23.35
2022-08-22T00:50:49.642Z,23.35
2022-08-22T00:53:31.740Z,23.33
2022-08-22T00:56:26.308Z,23.23
2022-08-22T00:59:18.026Z,23.18
2022-08-22T01:02:28.686Z,23.15
2022-08-22T01:05:07.621Z,23.16
2022-08-22T01:07:45.601Z,23.18
2022-08-22T01:10:24.389Z,23.16
2022-08-22T01:13:15.680Z,23.14
2022-08-22T01:15:43.920Z,23.10
2022-08-22T01:18:32.592Z,23.11
2022-08-22T01:20:59.372Z,23.14
2022-08-22T01:23:47.188Z,23.15
2022-08-22T01:26:38.342Z,23.14
2022-08-22T01:29:28.270Z,23.13
2022-08-22T01:32:20.586Z,23.11
2022-08-22T01:35:05.643Z,23.06
2022-08-22T01:37:59.029Z,23.08
2022-08-22T01:40:34.765Z,23.08
2022-08-22T01:43:17.511Z,23.06
2022-08-22T01:45:55.965Z,23.06
2022-08-22T01:48:53.727Z,23.05
2022-08-22T01:51:32.398Z,23.01
2022-08-22T01:54:12.949Z,23.05
2022-08-22T01:56:45.650Z,23.04
2022-08-22T01:59:28.903Z,22.99
2022-08-22T02:02:18.564Z,22.91
2022-08-22T02:04:48.060Z,22.88
2022-08-22T02:07:39.981Z,22.87
2022-08-22T02:10:43.660Z,22.88
2022-08-22T02:13:25.215Z,22.91
2022-08-22T02:16:17.909Z,22.91
2022-08-22T02:18:58.275Z,22.83
2022-08-22T02:21:46.088Z,22.81
2022-08-22T02:24:24.720Z,22.74
2022-08-22T02:27:06.224Z,22.72
2022-08-22T02:29:44.629Z,22.70
2022-08-22T02:32:11.012Z,22.66
2022-08-22T02:35:38.782Z,22.62
2022-08-22T02:38:08.117Z,22.64
2022-08-22T02:40:40.199Z,22.63
2022-08-22T02:43:21.712Z,22.65
2022-08-22T02:45:56.006Z,22.65
2022-08-22T02:48:27.704Z,22.62
2022-08-22T02:50:59.439Z,22.56
2022-08-22T02:53:47.525Z,22.57
2022-08-22T02:56:24.484Z,22.51
2022-08-22T02:58:59.335Z,22.48
2022-08-22T03:01:29.824Z,22.43
2022-08-22T03:04:24.343Z,22.29
2022-08-22T03:07:21.853Z,22.19
2022-08-22T03:10:10.296Z,22.20
2022-08-22T03:12:59.497Z,22.18
2022-08-22T03:15:38.016Z,22.13
2022-08-22T03:18:26.336Z,22.14
2022-08-22T03:20:59.959Z,22.13
2022-08-22T03:23:32.222Z,22.11
2022-08-22T03:26:18.996Z,22.05
2022-08-22T03:28:58.998Z,21.90
2022-08-22T03:31:28.984Z,21.83
2022-08-22T03:34:25.159Z,21.83
2022-08-22T03:37:42.913Z,21.81
2022-08-22T03:40:46.485Z,21.88
2022-08-22T03:43:22.229Z,21.95
2022-08-22T03:46:25.830Z,21.97
2022-08-22T03:49:40.031Z,21.97
2022-08-22T03:52:21.509Z,21.93
2022-08-22T03:55:09.747Z,21.95
2022-08-22T03:57:36.129Z,21.96
2022-08-22T04:00:13.106Z,21.90
2022-08-22T04:03:07.722Z,21.90
2022-08-22T04:05:54.269Z,21.94
2022-08-22T04:08:44.818Z,21.89
2022-08-22T04:11:41.357Z,21.75
2022-08-22T04:14:16.841Z,21.65
2022-08-22T04:17:04.247Z,21.57
2022-08-22T04:19:30.767Z,21.54
2022-08-22T04:22:28.789Z,21.58
2022-08-22T04:25:17.262Z,21.60
2022-08-22T04:28:07.298Z,21.59
2022-08-22T04:30:42.899Z,21.31
2022-08-22T04:33:12.271Z,21.29
2022-08-22T04:35:51.820Z,21.31
2022-08-22T04:38:30.926Z,21.36
2022-08-22T04:41:04.595Z,21.39
2022-08-22T04:43:46.910Z,21.44
2022-08-22T04:46:26.308Z,21.43
2022-08-22T04:49:12.650Z,21.40
2022-08-22T04:52:02.476Z,21.41
2022-08-22T04:54:54.655Z,21.29
2022-08-22T04:57:39.111Z,21.19
2022-08-22T05:00:09.036Z,21.16
2022-08-22T05:02:40.170Z,21.12
2022-08-22T05:05:15.799Z,21.10
2022-08-22T05:07:49.194Z,21.04
2022-08-22T05:10:36.399Z,21.06
2022-08-22T05:13:09.607Z,21.06
2022-08-22T05:15:41.334Z,21.18
2022-08-22T05:18:14.341Z,21.25
2022-08-22T05:20:45.584Z,21.49
2022-08-22T05:23:41.557Z,21.75
2022-08-22T05:26:10.994Z,21.91
2022-08-22T05:28:43.263Z,22.32
2022-08-22T05:31:14.985Z,23.00
2022-08-22T05:33:46.705Z,23.63
2022-08-22T05:36:23.078Z,24.42
2022-08-22T05:39:04.847Z,24.87
2022-08-22T05:41:36.851Z,25.05
2022-08-22T05:44:04.946Z,25.37
2022-08-22T05:46:44.527Z,25.61
2022-08-22T05:49:30.882Z,25.98
2022-08-22T05:52:23.696Z,26.34
2022-08-22T05:55:01.696Z,26.54
2022-08-22T05:57:38.312Z,26.76
2022-08-22T06:00:12.605Z,27.04
2022-08-22T06:03:38.466Z,26.92
2022-08-22T06:06:14.378Z,27.32
2022-08-22T06:09:06.927Z,27.69
2022-08-22T06:12:00.201Z,27.88
2022-08-22T06:14:35.790Z,28.14
2022-08-22T06:17:11.696Z,28.65
2022-08-22T06:19:42.822Z,28.82
2022-08-22T06:22:10.274Z,28.51
2022-08-22T06:24:41.048Z,28.74
2022-08-22T06:27:12.809Z,29.04
2022-08-22T06:29:44.380Z,29.61
2022-08-22T06:32:44.361Z,29.47
2022-08-22T06:35:22.340Z,29.74
2022-08-22T06:37:51.802Z,30.25
2022-08-22T06:40:19.003Z,29.91
2022-08-22T06:42:51.765Z,30.07
2022-08-22T06:45:32.502Z,30.42
2022-08-22T06:48:05.006Z,30.21
2022-08-22T06:50:42.657Z,31.01
2022-08-22T06:53:12.062Z,31.60
2022-08-22T06:55:42.989Z,31.56
2022-08-22T06:58:17.219Z,31.48
2022-08-22T07:00:51.522Z,32.23
2022-08-22T07:03:35.122Z,32.09
2022-08-22T07:06:03.260Z,32.52
2022-08-22T07:08:37.183Z,32.96
2022-08-22T07:11:11.769Z,33.42
2022-08-22T07:13:42.944Z,33.98
2022-08-22T07:16:10.913Z,34.32
2022-08-22T07:18:49.898Z,33.37
2022-08-22T07:21:41.281Z,33.37
2022-08-22T07:24:10.193Z,33.83
2022-08-22T07:26:47.263Z,33.42
2022-08-22T07:29:24.053Z,34.06
2022-08-22T07:32:12.191Z,34.38
2022-08-22T07:34:57.036Z,33.39
2022-08-22T07:37:38.808Z,34.39
2022-08-22T07:40:11.395Z,34.60
2022-08-22T07:42:51.967Z,34.42
2022-08-22T07:45:40.679Z,33.61
2022-08-22T07:48:26.608Z,34.00
2022-08-22T07:51:15.926Z,34.13
2022-08-22T07:53:47.456Z,34.05
2022-08-22T07:56:29.381Z,35.02
2022-08-22T07:59:05.745Z,35.15
2022-08-22T08:01:37.347Z,34.60
2022-08-22T08:04:08.838Z,33.32
2022-08-22T08:06:35.816Z,33.03
2022-08-22T08:09:03.167Z,33.46
2022-08-22T08:11:39.821Z,33.34
2022-08-22T08:14:08.804Z,33.26
2022-08-22T08:16:47.669Z,33.76
2022-08-22T08:19:16.863Z,33.71
2022-08-22T08:21:49.849Z,34.13
2022-08-22T08:24:22.296Z,34.60
2022-08-22T08:27:15.671Z,35.39
2022-08-22T08:29:58.857Z,35.08
2022-08-22T08:32:31.252Z,35.80
2022-08-22T08:34:59.397Z,35.99
2022-08-22T08:37:47.395Z,36.69
2022-08-22T08:40:26.555Z,36.99
2022-08-22T08:43:27.966Z,36.23
2022-08-22T08:45:59.155Z,34.39
2022-08-22T08:49:00.687Z,36.32
2022-08-22T08:51:54.520Z,36.34
2022-08-22T08:54:39.959Z,35.77
2022-08-22T08:57:16.493Z,36.72
2022-08-22T09:00:15.921Z,37.84
2022-08-22T09:02:45.384Z,35.67
2022-08-22T09:05:40.489Z,33.79
2022-08-22T09:08:19.116Z,36.11
2022-08-22T09:10:58.195Z,36.44
2022-08-22T09:13:53.310Z,36.92
2022-08-22T09:16:22.603Z,37.75
2022-08-22T09:19:34.741Z,35.98
2022-08-22T09:22:05.448Z,34.83
2022-08-22T09:24:59.800Z,36.48
2022-08-22T09:27:45.602Z,34.62
2022-08-22T09:30:28.578Z,35.53
2022-08-22T09:33:14.808Z,36.43
2022-08-22T09:36:00.958Z,35.68
2022-08-22T09:39:05.904Z,35.36
2022-08-22T09:42:08.870Z,36.25
2022-08-22T09:45:00.240Z,36.78
2022-08-22T09:47:34.375Z,35.22
2022-08-22T09:50:36.546Z,35.93
2022-08-22T09:53:31.992Z,35.34
2022-08-22T09:56:18.792Z,35.94
2022-08-22T09:59:16.794Z,36.07
2022-08-22T10:01:57.577Z,36.70
2022-08-22T10:04:45.249Z,36.83
2022-08-22T10:07:30.270Z,37.04
2022-08-22T10:10:26.175Z,36.34
2022-08-22T10:13:04.023Z,35.51
2022-08-22T10:15:45.967Z,35.85
2022-08-22T10:18:52.689Z,35.76
2022-08-22T10:21:30.991Z,36.92
2022-08-22T10:24:25.785Z,36.40
2022-08-22T10:27:07.547Z,36.95
2022-08-22T10:29:51.526Z,35.04
2022-08-22T10:33:06.428Z,36.18
2022-08-22T10:36:05.110Z,36.09
2022-08-22T10:38:46.421Z,36.02
2022-08-22T10:41:51.697Z,36.14
2022-08-22T10:44:49.613Z,34.48
2022-08-22T10:47:26.729Z,34.71
2022-08-22T10:50:08.695Z,33.06
2022-08-22T10:52:51.417Z,33.32
2022-08-22T10:55:27.402Z,32.28
2022-08-22T10:58:12.734Z,31.43
2022-08-22T11:00:50.715Z,31.91
2022-08-22T11:03:28.190Z,31.33
2022-08-22T11:06:00.316Z,31.47
2022-08-22T11:08:47.839Z,31.76
2022-08-22T11:11:20.266Z,32.12
2022-08-22T11:14:21.954Z,31.73
2022-08-22T11:17:27.942Z,32.33
2022-08-22T11:20:16.595Z,32.18
2022-08-22T11:22:46.054Z,31.85
2022-08-22T11:25:41.219Z,31.78
2022-08-22T11:28:30.130Z,31.87
2022-08-22T11:31:23.313Z,32.04
2022-08-22T11:34:09.321Z,32.26
2022-08-22T11:36:51.423Z,31.80
2022-08-22T11:39:34.765Z,31.37
2022-08-22T11:42:31.296Z,31.31
2022-08-22T11:45:01.481Z,31.63
2022-08-22T11:47:33.012Z,31.86
2022-08-22T11:50:02.305Z,31.45
2022-08-22T11:52:52.118Z,31.35
2022-08-22T11:55:30.814Z,32.31
2022-08-22T11:58:15.800Z,32.76
2022-08-22T12:01:18.498Z,33.21
2022-08-22T12:04:17.904Z,33.56
2022-08-22T12:07:13.626Z,33.52
2022-08-22T12:10:02.914Z,33.48
2022-08-22T12:12:55.450Z,32.92
2022-08-22T12:15:24.499Z,33.02
2022-08-22T12:17:55.741Z,32.86
2022-08-22T12:20:46.477Z,32.76
2022-08-22T12:23:49.687Z,32.37
2022-08-22T12:26:37.904Z,32.04
2022-08-22T12:29:34.012Z,32.08
2022-08-22T12:32:15.360Z,32.48
2022-08-22T12:35:01.012Z,32.98
2022-08-22T12:37:56.819Z,33.15
2022-08-22T12:40:47.709Z,33.39
2022-08-22T12:43:24.735Z,33.60
2022-08-22T12:46:18.234Z,33.23
2022-08-22T12:49:09.761Z,33.20
2022-08-22T12:52:09.321Z,32.59
2022-08-22T12:57:24.587Z,31.57
2022-08-22T13:00:22.984Z,31.71
2022-08-22T13:02:55.500Z,31.69
2022-08-22T13:05:26.462Z,32.03
2022-08-22T13:08:04.288Z,32.20
2022-08-22T13:10:47.872Z,32.33
2022-08-22T13:13:36.482Z,32.50
2022-08-22T13:16:13.453Z,32.23
2022-08-22T13:18:46.377Z,32.14
2022-08-22T13:21:16.648Z,31.65
2022-08-22T13:23:54.776Z,31.97
2022-08-22T13:26:33.035Z,31.36
2022-08-22T13:32:01.016Z,31.77
2022-08-22T13:34:38.406Z,31.69
2022-08-22T13:37:15.037Z,31.74
2022-08-22T13:39:47.086Z,32.04
2022-08-22T13:42:30.045Z,32.33
2022-08-22T13:45:04.615Z,31.98
2022-08-22T13:47:39.740Z,32.47
2022-08-22T13:50:14.740Z,32.67
2022-08-22T13:52:52.499Z,32.81
2022-08-22T13:55:37.067Z,33.05
2022-08-22T13:58:06.720Z,32.10
2022-08-22T14:01:18.336Z,32.20
2022-08-22T14:04:34.703Z,32.22
2022-08-22T14:07:06.056Z,32.40
2022-08-22T14:09:43.154Z,32.19
2022-08-22T14:12:21.090Z,32.12
2022-08-22T14:14:57.115Z,31.98
2022-08-22T14:17:33.848Z,32.23
2022-08-22T14:20:11.114Z,32.35
2022-08-22T14:22:42.700Z,32.15
2022-08-22T14:25:19.319Z,32.12
2022-08-22T14:27:52.688Z,32.25
2022-08-22T14:30:24.414Z,32.44
2022-08-22T14:33:34.554Z,32.62
2022-08-22T14:36:13.276Z,32.24
2022-08-22T14:38:47.134Z,31.80
2022-08-22T14:41:56.377Z,32.33
2022-08-22T14:44:36.708Z,32.25
2022-08-22T14:47:34.492Z,32.12
2022-08-22T14:49:58.328Z,31.93
2022-08-22T14:52:34.438Z,32.02
2022-08-22T14:55:23.860Z,31.99
2022-08-22T14:58:18.467Z,32.01
2022-08-22T15:00:56.534Z,31.72
2022-08-22T15:03:32.336Z,31.75
2022-08-22T15:06:07.974Z,31.65
2022-08-22T15:08:49.278Z,31.79
2022-08-22T15:11:20.758Z,32.12
2022-08-22T15:14:25.836Z,31.85
2022-08-22T15:16:57.254Z,31.90
2022-08-22T15:19:41.216Z,32.00
2022-08-22T15:22:17.330Z,32.24
2022-08-22T15:25:02.771Z,32.02
2022-08-22T15:27:32.273Z,32.16
2022-08-22T15:30:02.832Z,32.20
2022-08-22T15:32:31.965Z,32.39
2022-08-22T15:35:17.784Z,32.40
2022-08-22T15:37:59.954Z,32.45
2022-08-22T15:40:40.814Z,32.42
2022-08-22T15:43:35.049Z,32.02
2022-08-22T15:46:17.832Z,31.97
2022-08-22T15:49:03.168Z,31.74
2022-08-22T15:51:43.370Z,31.85
2022-08-22T15:54:25.582Z,31.59
2022-08-22T15:56:52.930Z,31.42
2022-08-22T15:59:53.707Z,31.55
2022-08-22T16:02:38.684Z,31.47
2022-08-22T16:05:11.552Z,31.40
2022-08-22T16:07:49.579Z,31.37
2022-08-22T16:10:22.281Z,31.44
2022-08-22T16:13:25.997Z,31.26
2022-08-22T16:15:59.198Z,31.29
2022-08-22T16:18:39.357Z,31.41
2022-08-22T16:21:18.150Z,31.56
2022-08-22T16:23:54.090Z,31.57
2022-08-22T16:26:44.208Z,31.65
2022-08-22T16:29:13.664Z,31.28
2022-08-22T16:31:44.425Z,31.31
2022-08-22T16:34:17.057Z,31.37
2022-08-22T16:37:08.136Z,31.22
2022-08-22T16:39:41.108Z,31.15
2022-08-22T16:42:23.040Z,31.22
2022-08-22T16:45:11.671Z,31.17
2022-08-22T16:47:58.378Z,31.12
2022-08-22T16:50:31.327Z,31.10
2022-08-22T16:53:05.265Z,31.09
2022-08-22T16:55:32.666Z,31.02
2022-08-22T16:58:06.995Z,30.99
2022-08-22T17:00:36.636Z,30.93
2022-08-22T17:03:19.489Z,30.82
2022-08-22T17:05:52.265Z,30.79
2022-08-22T17:08:40.693Z,30.74
2022-08-22T17:11:35.341Z,30.68
2022-08-22T17:14:20.393Z,30.67
2022-08-22T17:16:49.755Z,30.58
2022-08-22T17:19:59.096Z,30.53
2022-08-22T17:22:43.268Z,30.43
2022-08-22T17:25:22.146Z,30.29
2022-08-22T17:28:03.267Z,30.27
2022-08-22T17:30:46.079Z,30.25
2022-08-22T17:33:43.210Z,30.01
2022-08-22T17:36:26.677Z,29.87
2022-08-22T17:39:00.017Z,29.71
2022-08-22T17:41:45.154Z,29.53
2022-08-22T17:44:30.210Z,29.39
2022-08-22T17:47:08.674Z,29.28
2022-08-22T17:49:35.228Z,29.13
2022-08-22T17:52:21.886Z,29.02
2022-08-22T17:54:56.978Z,28.94
2022-08-22T17:57:23.565Z,28.88
2022-08-22T18:00:15.470Z,28.82
2022-08-22T18:02:57.600Z,28.78
2022-08-22T18:05:31.988Z,28.70
2022-08-22T18:11:29.310Z,28.55
2022-08-22T18:13:58.674Z,28.49
2022-08-22T18:16:37.945Z,28.45
2022-08-22T18:19:29.169Z,28.40
2022-08-22T18:22:33.593Z,28.34
2022-08-22T18:25:28.801Z,28.26
2022-08-22T18:28:00.113Z,28.21
2022-08-22T18:30:37.006Z,28.17
2022-08-22T18:33:25.523Z,28.18
2022-08-22T18:36:01.073Z,28.08
2022-08-22T18:38:52.533Z,27.92
2022-08-22T18:41:19.149Z,27.78
2022-08-22T18:43:50.903Z,27.59
2022-08-22T18:46:33.041Z,27.42
2022-08-22T18:49:19.883Z,27.32
2022-08-22T18:52:08.530Z,27.19
2022-08-22T18:54:58.853Z,27.04
2022-08-22T18:58:24.207Z,26.89
2022-08-22T19:01:07.471Z,26.90
2022-08-22T19:03:52.308Z,26.93
2022-08-22T19:06:37.712Z,26.92
2022-08-22T19:09:20.105Z,26.86
2022-08-22T19:12:16.298Z,26.74
2022-08-22T19:15:17.016Z,26.65
2022-08-22T19:17:58.763Z,26.38
2022-08-22T19:20:50.717Z,26.15
2022-08-22T19:23:41.739Z,25.94
2022-08-22T19:26:35.016Z,25.79
2022-08-22T19:29:16.586Z,25.57
2022-08-22T19:31:50.432Z,25.39
2022-08-22T19:34:26.079Z,25.29
2022-08-22T19:37:30.879Z,25.11
2022-08-22T19:40:07.310Z,24.94
2022-08-22T19:42:40.156Z,24.91
2022-08-22T19:45:07.042Z,24.77
2022-08-22T19:47:37.849Z,24.60
2022-08-22T19:50:16.713Z,24.65
2022-08-22T19:52:56.870Z,24.62
2022-08-22T19:55:38.783Z,24.58
2022-08-22T19:58:13.064Z,24.59
2022-08-22T20:01:06.294Z,24.62
2022-08-22T20:03:54.324Z,24.68
2022-08-22T20:06:40.799Z,24.73
2022-08-22T20:09:13.744Z,24.75
2022-08-22T20:11:48.305Z,24.78
2022-08-22T20:14:30.280Z,24.82
2022-08-22T20:17:33.825Z,24.82
2022-08-22T20:20:24.059Z,24.87
2022-08-22T20:23:22.972Z,24.93
2022-08-22T20:25:52.915Z,24.94
2022-08-22T20:28:41.201Z,25.07
2022-08-22T20:31:25.875Z,25.09
2022-08-22T20:33:58.893Z,25.06
2022-08-22T20:36:27.620Z,25.08
2022-08-22T20:39:01.860Z,25.04
2022-08-22T20:41:39.790Z,25.02
2022-08-22T20:44:20.093Z,24.82
2022-08-22T20:46:46.868Z,24.66
2022-08-22T20:49:28.607Z,24.40
2022-08-22T20:52:11.539Z,24.25
2022-08-22T20:54:41.045Z,24.15
2022-08-22T20:57:19.375Z,24.15
2022-08-22T20:59:53.827Z,24.18
2022-08-22T21:02:39.333Z,24.24
2022-08-22T21:05:21.302Z,24.33
2022-08-22T21:08:02.337Z,24.49
2022-08-22T21:10:49.507Z,24.38
2022-08-22T21:13:19.774Z,24.33
2022-08-22T21:15:52.873Z,24.43
2022-08-22T21:18:38.129Z,24.44
2022-08-22T21:21:18.254Z,24.30
2022-08-22T21:24:07.801Z,24.11
2022-08-22T21:26:51.713Z,23.88
2022-08-22T21:29:23.401Z,23.73
2022-08-22T21:32:04.555Z,23.66
2022-08-22T21:34:41.477Z,23.60
2022-08-22T21:37:12.480Z,23.66
2022-08-22T21:39:46.076Z,23.70
2022-08-22T21:42:23.835Z,23.64
2022-08-22T21:45:09.414Z,23.59
2022-08-22T21:47:41.513Z,23.57
2022-08-22T21:50:23.580Z,23.58
2022-08-22T21:52:56.351Z,23.50
2022-08-22T21:55:34.482Z,23.38
2022-08-22T21:58:35.962Z,23.32
2022-08-22T22:01:30.375Z,23.19
2022-08-22T22:04:01.198Z,23.07
2022-08-22T22:06:28.059Z,23.06
2022-08-22T22:08:55.424Z,23.06
2022-08-22T22:11:22.195Z,23.09
2022-08-22T22:13:49.063Z,23.04
2022-08-22T22:16:56.773Z,23.02
2022-08-22T22:19:23.647Z,22.95
2022-08-22T22:21:50.206Z,22.94
2022-08-22T22:24:16.772Z,22.88
2022-08-22T22:26:43.377Z,22.84
2022-08-22T22:29:10.831Z,22.83
2022-08-22T22:31:37.442Z,22.81
2022-08-22T22:34:04.109Z,22.78
2022-08-22T22:36:30.908Z,22.73
2022-08-22T22:38:57.691Z,22.74
2022-08-22T22:41:25.655Z,22.69
2022-08-22T22:43:53.854Z,22.72
2022-08-22T22:46:21.734Z,22.77
2022-08-22T22:48:48.454Z,22.74
2022-08-22T22:51:15.285Z,22.70
2022-08-22T22:53:42.696Z,22.72
2022-08-22T22:56:13.928Z,22.72
2022-08-22T22:58:41.107Z,22.69
2022-08-22T23:01:14.294Z,22.72
2022-08-22T23:03:41.776Z,22.63
2022-08-22T23:06:19.312Z,22.66
2022-08-22T23:08:47.009Z,22.64
2022-08-22T23:11:16.815Z,22.60
2022-08-22T23:13:43.558Z,22.52
2022-08-22T23:16:13.853Z,22.40
2022-08-22T23:18:41.976Z,22.32
2022-08-22T23:21:13.179Z,22.26
2022-08-22T23:23:40.145Z,22.23
2022-08-22T23:26:07.458Z,22.17
2022-08-22T23:28:34.218Z,22.20
2022-08-22T23:31:15.076Z,22.22
2022-08-22T23:33:42.582Z,22.17
2022-08-22T23:36:16.469Z,22.11
2022-08-22T23:38:44.123Z,21.96
2022-08-22T23:41:12.955Z,21.91
2022-08-22T23:43:45.781Z,21.87
2022-08-22T23:46:14.378Z,21.88
2022-08-22T23:48:41.860Z,21.87
2022-08-22T23:51:10.742Z,21.92
2022-08-22T23:53:38.213Z,21.95
2022-08-22T23:56:19.220Z,21.98
2022-08-22T23:58:46.796Z,21.94
